Windsor, VT

11:31 AM EDT on September 05, 2015 (GMT -0400)
Ascutney Farm Stand | | Change Station
CLOSE
Current Station
Personal Weather Station
Location: Windsor, VT
Elevation: 427 ft
Nearby Weather Stations

Elev 427 ft 43.41 °N, 72.41 °W | Updated 2 minutes ago

Clear
Clear
80.6 °F
Feels Like 83 °F
N
2.2
Wind Variable Wind from SW

Today
High -- | Low -- °F
--% Chance of Precip.
Yesterday
High -- | Low -- °F
Precip. -- in
6:17 AM 7:18 PM
Waning Gibbous, 47% visible
Pressure 30.31 in
Visibility 10.0 miles
Clouds Clear
Heat Index 83 °F
Dew Point 66 °F
Humidity 62%
Rainfall 0.00 in
Snow Depth Not available.
UV 7 out of 12
Pollen 7.30 out of 12
Air Quality Not available.
Flu Activity Not available.
METAR KVSF 051454Z AUTO 00000KT 10SM CLR 19/14 A3031 RMK AO2 SLP264 T01940139 58012
Pressure 30.31 in
Visibility 10.0 miles
Clouds Clear
Heat Index 83 °F
Dew Point 66 °F
Humidity 62%
Rainfall 0.00 in
Snow Depth Not available.
UV 7 out of 12
Pollen 7.30 out of 12
Air Quality Not available.
Flu Activity Not available.
METAR KVSF 051454Z AUTO 00000KT 10SM CLR 19/14 A3031 RMK AO2 SLP264 T01940139 58012

10-Day Weather Forecast

×

Almanac

Astronomy

Sep. 05, 2015 Rise Set
Actual Time
Civil Twilight
Nautical Twilight
Astronomical Twilight
Moon
Length of Visible Light
Length of Day
Tomorrow will be .
, % of the Moon is Illuminated

Today's Extremes

State Highs State Lows

Community

WunderPhotos

Upload Photos

1,852,482 photos uploaded!

WunderBlogs® & News

Nearby

Air Quality

  Air Quality AQ Index Pollutant
Not available.

Snow Depth

Station Depth Elevation

Earthquake Activity

City Distance Mag. Time & Date
Minimum magnitude displayed is 2.5.

Coastal Water Temperatures

Place Temperature

Stations

Nearby Weather Stations

Station Location Temp. Windchill Dew Point Humidity Wind Precip. Elev Updated Type